sensor_id;sensor_type;location;lat;lon;timestamp;P1;durP1;ratioP1;P2;durP2;ratioP2
2001;SDS011;1003;48.002;7.788;2023-02-10T00:01:02;28.67;;;13.30;;
2001;SDS011;1003;48.002;7.788;2023-02-10T00:03:31;27.47;;;13.20;;
2001;SDS011;1003;48.002;7.788;2023-02-10T00:05:59;31.33;;;14.07;;
2001;SDS011;1003;48.002;7.788;2023-02-10T00:08:28;30.83;;;14.73;;
2001;SDS011;1003;48.002;7.788;2023-02-10T00:10:56;26.80;;;12.67;;
2001;SDS011;1003;48.002;7.788;2023-02-10T00:13:24;29.10;;;13.47;;
2001;SDS011;1003;48.002;7.788;2023-02-10T00:15:52;25.03;;;12.53;;
2001;SDS011;1003;48.002;7.788;2023-02-10T00:18:20;25.93;;;12.93;;
2001;SDS011;1003;48.002;7.788;2023-02-10T00:20:47;24.57;;;12.50;;
2001;SDS011;1003;48.002;7.788;2023-02-10T00:23:14;27.30;;;12.90;;
2001;SDS011;1003;48.002;7.788;2023-02-10T00:25:42;28.67;;;13.00;;
2001;SDS011;1003;48.002;7.788;2023-02-10T00:28:09;22.37;;;11.53;;
2001;SDS011;1003;48.002;7.788;2023-02-10T00:30:37;29.60;;;11.53;;
2001;SDS011;1003;48.002;7.788;2023-02-10T00:33:05;23.57;;;11.77;;
2001;SDS011;1003;48.002;7.788;2023-02-10T00:35:32;24.47;;;11.40;;
2001;SDS011;1003;48.002;7.788;2023-02-10T00:37:59;24.30;;;11.43;;
2001;SDS011;1003;48.002;7.788;2023-02-10T00:40:26;23.77;;;11.07;;
2001;SDS011;1003;48.002;7.788;2023-02-10T00:42:55;25.03;;;12.17;;
2001;SDS011;1003;48.002;7.788;2023-02-10T00:45:22;25.93;;;12.07;;
2001;SDS011;1003;48.002;7.788;2023-02-10T00:47:49;24.70;;;11.43;;
2001;SDS011;1003;48.002;7.788;2023-02-10T00:50:16;23.10;;;10.80;;
2001;SDS011;1003;48.002;7.788;2023-02-10T00:52:43;26.37;;;11.43;;
2001;SDS011;1003;48.002;7.788;2023-02-10T00:55:10;21.87;;;10.83;;
2001;SDS011;1003;48.002;7.788;2023-02-10T00:57:37;24.43;;;11.27;;
2001;SDS011;1003;48.002;7.788;2023-02-10T01:00:06;24.77;;;10.63;;
2001;SDS011;1003;48.002;7.788;2023-02-10T01:02:35;23.13;;;11.17;;
2001;SDS011;1003;48.002;7.788;2023-02-10T01:05:02;23.77;;;11.13;;
2001;SDS011;1003;48.002;7.788;2023-02-10T01:07:29;25.07;;;11.50;;
2001;SDS011;1003;48.002;7.788;2023-02-10T01:09:56;22.97;;;11.13;;
2001;SDS011;1003;48.002;7.788;2023-02-10T01:12:23;22.07;;;11.00;;
2001;SDS011;1003;48.002;7.788;2023-02-10T01:14:51;20.60;;;10.13;;
2001;SDS011;1003;48.002;7.788;2023-02-10T01:17:19;20.23;;;9.83;;
2001;SDS011;1003;48.002;7.788;2023-02-10T01:19:46;19.63;;;10.17;;
2001;SDS011;1003;48.002;7.788;2023-02-10T01:22:16;21.37;;;9.57;;
2001;SDS011;1003;48.002;7.788;2023-02-10T01:24:43;21.00;;;10.10;;
2001;SDS011;1003;48.002;7.788;2023-02-10T01:27:10;20.20;;;9.43;;
2001;SDS011;1003;48.002;7.788;2023-02-10T01:29:37;19.57;;;10.20;;
2001;SDS011;1003;48.002;7.788;2023-02-10T01:32:04;17.43;;;10.03;;
2001;SDS011;1003;48.002;7.788;2023-02-10T01:34:33;21.33;;;10.37;;
2001;SDS011;1003;48.002;7.788;2023-02-10T01:37:02;20.17;;;10.27;;
2001;SDS011;1003;48.002;7.788;2023-02-10T01:39:29;20.03;;;10.50;;
2001;SDS011;1003;48.002;7.788;2023-02-10T01:41:56;18.93;;;10.07;;
2001;SDS011;1003;48.002;7.788;2023-02-10T01:47:58;18.37;;;10.17;;
2001;SDS011;1003;48.002;7.788;2023-02-10T01:50:28;19.67;;;9.63;;
2001;SDS011;1003;48.002;7.788;2023-02-10T01:53:02;21.67;;;9.60;;
2001;SDS011;1003;48.002;7.788;2023-02-10T01:55:32;22.73;;;10.40;;
2001;SDS011;1003;48.002;7.788;2023-02-10T01:58:02;18.50;;;9.90;;
2001;SDS011;1003;48.002;7.788;2023-02-10T02:00:35;21.17;;;9.87;;
2001;SDS011;1003;48.002;7.788;2023-02-10T02:03:02;18.03;;;9.67;;
2001;SDS011;1003;48.002;7.788;2023-02-10T02:05:34;21.73;;;10.37;;
2001;SDS011;1003;48.002;7.788;2023-02-10T02:08:04;25.33;;;10.30;;
2001;SDS011;1003;48.002;7.788;2023-02-10T02:10:44;20.70;;;10.13;;
2001;SDS011;1003;48.002;7.788;2023-02-10T02:13:51;20.33;;;9.90;;
2001;SDS011;1003;48.002;7.788;2023-02-10T02:16:43;18.90;;;9.33;;
2001;SDS011;1003;48.002;7.788;2023-02-10T02:19:39;26.20;;;11.20;;
2001;SDS011;1003;48.002;7.788;2023-02-10T02:23:10;20.77;;;10.13;;
2001;SDS011;1003;48.002;7.788;2023-02-10T02:25:56;24.23;;;11.40;;
2001;SDS011;1003;48.002;7.788;2023-02-10T02:29:16;22.10;;;9.93;;
2001;SDS011;1003;48.002;7.788;2023-02-10T02:32:12;23.53;;;10.93;;
2001;SDS011;1003;48.002;7.788;2023-02-10T02:34:46;22.60;;;10.53;;
2001;SDS011;1003;48.002;7.788;2023-02-10T02:37:21;21.30;;;10.50;;
2001;SDS011;1003;48.002;7.788;2023-02-10T02:39:55;20.03;;;10.27;;
2001;SDS011;1003;48.002;7.788;2023-02-10T02:42:23;20.13;;;10.00;;
2001;SDS011;1003;48.002;7.788;2023-02-10T02:44:53;21.57;;;9.90;;
2001;SDS011;1003;48.002;7.788;2023-02-10T02:50:23;20.83;;;9.73;;
2001;SDS011;1003;48.002;7.788;2023-02-10T02:55:58;20.07;;;10.03;;
2001;SDS011;1003;48.002;7.788;2023-02-10T02:58:37;22.20;;;10.33;;
2001;SDS011;1003;48.002;7.788;2023-02-10T03:01:18;21.67;;;10.67;;
2001;SDS011;1003;48.002;7.788;2023-02-10T03:03:53;25.13;;;10.10;;
2001;SDS011;1003;48.002;7.788;2023-02-10T03:06:23;19.53;;;9.77;;
2001;SDS011;1003;48.002;7.788;2023-02-10T03:08:50;22.77;;;11.23;;
2001;SDS011;1003;48.002;7.788;2023-02-10T03:11:18;22.10;;;10.83;;
2001;SDS011;1003;48.002;7.788;2023-02-10T03:13:45;25.13;;;11.27;;
2001;SDS011;1003;48.002;7.788;2023-02-10T03:16:12;22.83;;;10.90;;
2001;SDS011;1003;48.002;7.788;2023-02-10T03:18:39;23.13;;;11.40;;
2001;SDS011;1003;48.002;7.788;2023-02-10T03:21:08;24.80;;;11.17;;
2001;SDS011;1003;48.002;7.788;2023-02-10T03:23:35;22.90;;;11.20;;
2001;SDS011;1003;48.002;7.788;2023-02-10T03:26:02;25.00;;;11.50;;
2001;SDS011;1003;48.002;7.788;2023-02-10T03:28:30;26.40;;;11.13;;
2001;SDS011;1003;48.002;7.788;2023-02-10T03:30:57;21.30;;;10.20;;
2001;SDS011;1003;48.002;7.788;2023-02-10T03:33:27;22.30;;;10.17;;
2001;SDS011;1003;48.002;7.788;2023-02-10T03:35:54;23.17;;;10.63;;
2001;SDS011;1003;48.002;7.788;2023-02-10T03:38:24;22.83;;;11.00;;
2001;SDS011;1003;48.002;7.788;2023-02-10T03:40:52;21.00;;;10.60;;
2001;SDS011;1003;48.002;7.788;2023-02-10T03:43:20;22.00;;;10.60;;
2001;SDS011;1003;48.002;7.788;2023-02-10T03:45:48;25.03;;;11.17;;
2001;SDS011;1003;48.002;7.788;2023-02-10T03:48:15;26.93;;;12.07;;
2001;SDS011;1003;48.002;7.788;2023-02-10T03:50:42;22.10;;;10.60;;
2001;SDS011;1003;48.002;7.788;2023-02-10T03:53:10;24.13;;;11.20;;
2001;SDS011;1003;48.002;7.788;2023-02-10T03:55:39;20.70;;;10.17;;
2001;SDS011;1003;48.002;7.788;2023-02-10T03:58:06;26.00;;;12.37;;
2001;SDS011;1003;48.002;7.788;2023-02-10T04:00:33;22.87;;;11.30;;
2001;SDS011;1003;48.002;7.788;2023-02-10T04:03:00;26.60;;;11.73;;
2001;SDS011;1003;48.002;7.788;2023-02-10T04:05:27;23.47;;;11.57;;
2001;SDS011;1003;48.002;7.788;2023-02-10T04:07:54;27.33;;;11.63;;
2001;SDS011;1003;48.002;7.788;2023-02-10T04:10:21;30.70;;;12.43;;
2001;SDS011;1003;48.002;7.788;2023-02-10T04:12:49;28.13;;;12.43;;
2001;SDS011;1003;48.002;7.788;2023-02-10T04:15:16;26.30;;;12.20;;
2001;SDS011;1003;48.002;7.788;2023-02-10T04:17:44;31.10;;;13.33;;
2001;SDS011;1003;48.002;7.788;2023-02-10T04:20:11;33.60;;;13.90;;
2001;SDS011;1003;48.002;7.788;2023-02-10T04:22:39;28.47;;;13.57;;
2001;SDS011;1003;48.002;7.788;2023-02-10T04:25:07;27.87;;;13.73;;
2001;SDS011;1003;48.002;7.788;2023-02-10T04:27:35;29.47;;;13.03;;
2001;SDS011;1003;48.002;7.788;2023-02-10T04:30:04;28.03;;;14.03;;
2001;SDS011;1003;48.002;7.788;2023-02-10T04:32:32;33.67;;;13.60;;
2001;SDS011;1003;48.002;7.788;2023-02-10T04:34:59;25.13;;;12.27;;
2001;SDS011;1003;48.002;7.788;2023-02-10T04:37:27;28.87;;;12.83;;
2001;SDS011;1003;48.002;7.788;2023-02-10T04:39:54;30.13;;;12.63;;
2001;SDS011;1003;48.002;7.788;2023-02-10T04:42:21;32.47;;;13.00;;
2001;SDS011;1003;48.002;7.788;2023-02-10T04:44:54;33.00;;;14.27;;
2001;SDS011;1003;48.002;7.788;2023-02-10T04:47:23;30.50;;;13.67;;
2001;SDS011;1003;48.002;7.788;2023-02-10T04:49:51;31.83;;;13.67;;
2001;SDS011;1003;48.002;7.788;2023-02-10T04:52:18;30.40;;;13.50;;
2001;SDS011;1003;48.002;7.788;2023-02-10T04:54:45;31.30;;;13.47;;
2001;SDS011;1003;48.002;7.788;2023-02-10T04:57:13;35.50;;;13.93;;
2001;SDS011;1003;48.002;7.788;2023-02-10T04:59:40;37.03;;;14.80;;
2001;SDS011;1003;48.002;7.788;2023-02-10T05:02:07;31.87;;;14.70;;
2001;SDS011;1003;48.002;7.788;2023-02-10T05:04:35;32.17;;;13.83;;
2001;SDS011;1003;48.002;7.788;2023-02-10T05:07:02;31.10;;;13.10;;
2001;SDS011;1003;48.002;7.788;2023-02-10T05:09:30;28.33;;;12.40;;
2001;SDS011;1003;48.002;7.788;2023-02-10T05:11:57;27.77;;;13.17;;
2001;SDS011;1003;48.002;7.788;2023-02-10T05:14:24;24.50;;;12.07;;
2001;SDS011;1003;48.002;7.788;2023-02-10T05:16:51;29.37;;;12.97;;
2001;SDS011;1003;48.002;7.788;2023-02-10T05:19:18;25.43;;;12.97;;
2001;SDS011;1003;48.002;7.788;2023-02-10T05:21:46;27.97;;;12.37;;
2001;SDS011;1003;48.002;7.788;2023-02-10T05:24:13;34.93;;;14.40;;
2001;SDS011;1003;48.002;7.788;2023-02-10T05:26:41;32.77;;;14.83;;
2001;SDS011;1003;48.002;7.788;2023-02-10T05:29:08;34.87;;;15.77;;
2001;SDS011;1003;48.002;7.788;2023-02-10T05:31:35;34.20;;;15.00;;
2001;SDS011;1003;48.002;7.788;2023-02-10T05:34:02;33.37;;;14.60;;
2001;SDS011;1003;48.002;7.788;2023-02-10T05:36:29;32.33;;;15.30;;
2001;SDS011;1003;48.002;7.788;2023-02-10T05:38:58;31.20;;;14.67;;
2001;SDS011;1003;48.002;7.788;2023-02-10T05:41:42;38.40;;;16.50;;
2001;SDS011;1003;48.002;7.788;2023-02-10T05:44:09;36.17;;;14.90;;
2001;SDS011;1003;48.002;7.788;2023-02-10T05:46:36;35.00;;;16.40;;
2001;SDS011;1003;48.002;7.788;2023-02-10T05:49:03;25.93;;;12.57;;
2001;SDS011;1003;48.002;7.788;2023-02-10T05:51:31;24.83;;;13.03;;
2001;SDS011;1003;48.002;7.788;2023-02-10T05:54:00;24.57;;;12.13;;
2001;SDS011;1003;48.002;7.788;2023-02-10T05:56:27;23.97;;;10.83;;
2001;SDS011;1003;48.002;7.788;2023-02-10T05:58:54;24.07;;;11.30;;
2001;SDS011;1003;48.002;7.788;2023-02-10T06:01:21;27.50;;;12.37;;
2001;SDS011;1003;48.002;7.788;2023-02-10T06:03:49;27.03;;;12.27;;
2001;SDS011;1003;48.002;7.788;2023-02-10T06:06:16;22.07;;;9.83;;
2001;SDS011;1003;48.002;7.788;2023-02-10T06:08:43;20.80;;;10.83;;
2001;SDS011;1003;48.002;7.788;2023-02-10T06:11:11;23.60;;;11.30;;
2001;SDS011;1003;48.002;7.788;2023-02-10T06:13:38;23.47;;;11.03;;
2001;SDS011;1003;48.002;7.788;2023-02-10T06:16:07;26.83;;;11.87;;
2001;SDS011;1003;48.002;7.788;2023-02-10T06:18:36;26.33;;;12.50;;
2001;SDS011;1003;48.002;7.788;2023-02-10T06:21:04;29.43;;;12.67;;
2001;SDS011;1003;48.002;7.788;2023-02-10T06:23:31;25.10;;;12.27;;
2001;SDS011;1003;48.002;7.788;2023-02-10T06:25:58;26.53;;;12.87;;
2001;SDS011;1003;48.002;7.788;2023-02-10T06:28:27;32.30;;;13.50;;
2001;SDS011;1003;48.002;7.788;2023-02-10T06:30:54;26.20;;;13.07;;
2001;SDS011;1003;48.002;7.788;2023-02-10T06:33:21;25.30;;;12.73;;
2001;SDS011;1003;48.002;7.788;2023-02-10T06:35:49;29.47;;;14.23;;
2001;SDS011;1003;48.002;7.788;2023-02-10T06:38:16;39.03;;;16.00;;
2001;SDS011;1003;48.002;7.788;2023-02-10T06:40:43;30.30;;;13.87;;
2001;SDS011;1003;48.002;7.788;2023-02-10T06:43:10;29.83;;;12.93;;
2001;SDS011;1003;48.002;7.788;2023-02-10T06:45:39;29.00;;;13.20;;
2001;SDS011;1003;48.002;7.788;2023-02-10T06:48:06;28.93;;;12.83;;
2001;SDS011;1003;48.002;7.788;2023-02-10T06:50:33;31.97;;;14.00;;
2001;SDS011;1003;48.002;7.788;2023-02-10T06:53:01;27.97;;;13.07;;
2001;SDS011;1003;48.002;7.788;2023-02-10T06:55:28;29.67;;;12.73;;
2001;SDS011;1003;48.002;7.788;2023-02-10T06:57:57;32.90;;;13.63;;
2001;SDS011;1003;48.002;7.788;2023-02-10T07:00:25;31.17;;;13.63;;
2001;SDS011;1003;48.002;7.788;2023-02-10T07:02:53;31.00;;;13.27;;
2001;SDS011;1003;48.002;7.788;2023-02-10T07:05:21;25.37;;;12.33;;
2001;SDS011;1003;48.002;7.788;2023-02-10T07:07:48;29.40;;;12.97;;
2001;SDS011;1003;48.002;7.788;2023-02-10T07:10:16;27.77;;;12.43;;
2001;SDS011;1003;48.002;7.788;2023-02-10T07:12:43;27.97;;;13.40;;
2001;SDS011;1003;48.002;7.788;2023-02-10T07:15:12;29.23;;;13.73;;
2001;SDS011;1003;48.002;7.788;2023-02-10T07:17:43;29.87;;;15.00;;
2001;SDS011;1003;48.002;7.788;2023-02-10T07:20:12;31.73;;;15.17;;
2001;SDS011;1003;48.002;7.788;2023-02-10T07:22:39;31.83;;;14.30;;
2001;SDS011;1003;48.002;7.788;2023-02-10T07:25:07;31.50;;;14.87;;
2001;SDS011;1003;48.002;7.788;2023-02-10T07:27:35;37.23;;;16.10;;
2001;SDS011;1003;48.002;7.788;2023-02-10T07:30:03;34.40;;;15.33;;
2001;SDS011;1003;48.002;7.788;2023-02-10T07:32:31;36.70;;;16.03;;
2001;SDS011;1003;48.002;7.788;2023-02-10T07:34:58;35.00;;;16.43;;
2001;SDS011;1003;48.002;7.788;2023-02-10T07:37:26;31.83;;;15.73;;
2001;SDS011;1003;48.002;7.788;2023-02-10T07:39:54;45.13;;;19.30;;
2001;SDS011;1003;48.002;7.788;2023-02-10T07:42:21;37.10;;;18.17;;
2001;SDS011;1003;48.002;7.788;2023-02-10T07:44:48;39.83;;;18.37;;
2001;SDS011;1003;48.002;7.788;2023-02-10T07:47:15;45.57;;;22.20;;
2001;SDS011;1003;48.002;7.788;2023-02-10T07:49:42;49.00;;;23.17;;
2001;SDS011;1003;48.002;7.788;2023-02-10T07:52:09;55.87;;;23.33;;
2001;SDS011;1003;48.002;7.788;2023-02-10T07:54:38;48.07;;;23.67;;
2001;SDS011;1003;48.002;7.788;2023-02-10T07:57:06;43.53;;;22.30;;
2001;SDS011;1003;48.002;7.788;2023-02-10T07:59:33;40.33;;;21.87;;
2001;SDS011;1003;48.002;7.788;2023-02-10T08:02:00;43.67;;;21.33;;
2001;SDS011;1003;48.002;7.788;2023-02-10T08:04:29;43.17;;;19.57;;
2001;SDS011;1003;48.002;7.788;2023-02-10T08:07:01;50.77;;;23.63;;
2001;SDS011;1003;48.002;7.788;2023-02-10T08:09:28;45.60;;;22.57;;
2001;SDS011;1003;48.002;7.788;2023-02-10T08:11:57;49.57;;;24.27;;
2001;SDS011;1003;48.002;7.788;2023-02-10T08:14:24;41.83;;;20.17;;
2001;SDS011;1003;48.002;7.788;2023-02-10T08:16:52;31.40;;;17.20;;
2001;SDS011;1003;48.002;7.788;2023-02-10T08:19:20;37.77;;;17.83;;
2001;SDS011;1003;48.002;7.788;2023-02-10T08:21:47;31.90;;;16.20;;
2001;SDS011;1003;48.002;7.788;2023-02-10T08:24:18;35.73;;;16.30;;
2001;SDS011;1003;48.002;7.788;2023-02-10T08:26:45;37.80;;;17.37;;
2001;SDS011;1003;48.002;7.788;2023-02-10T08:29:13;42.73;;;19.80;;
2001;SDS011;1003;48.002;7.788;2023-02-10T08:31:40;37.10;;;18.40;;
2001;SDS011;1003;48.002;7.788;2023-02-10T08:34:12;38.03;;;18.63;;
2001;SDS011;1003;48.002;7.788;2023-02-10T08:36:41;34.50;;;17.30;;
2001;SDS011;1003;48.002;7.788;2023-02-10T08:39:09;34.80;;;17.90;;
2001;SDS011;1003;48.002;7.788;2023-02-10T08:41:36;38.90;;;17.90;;
2001;SDS011;1003;48.002;7.788;2023-02-10T08:44:04;35.00;;;17.03;;
2001;SDS011;1003;48.002;7.788;2023-02-10T08:46:33;34.93;;;16.33;;
2001;SDS011;1003;48.002;7.788;2023-02-10T08:49:01;38.57;;;17.70;;
2001;SDS011;1003;48.002;7.788;2023-02-10T08:51:28;36.17;;;17.60;;
2001;SDS011;1003;48.002;7.788;2023-02-10T08:53:57;37.63;;;17.87;;
2001;SDS011;1003;48.002;7.788;2023-02-10T08:56:26;35.00;;;17.67;;
2001;SDS011;1003;48.002;7.788;2023-02-10T08:58:54;37.93;;;17.27;;
2001;SDS011;1003;48.002;7.788;2023-02-10T09:01:22;35.40;;;17.13;;
2001;SDS011;1003;48.002;7.788;2023-02-10T09:03:53;33.53;;;17.30;;
2001;SDS011;1003;48.002;7.788;2023-02-10T09:06:22;37.33;;;17.30;;
2001;SDS011;1003;48.002;7.788;2023-02-10T09:08:53;30.07;;;15.93;;
2001;SDS011;1003;48.002;7.788;2023-02-10T09:11:20;34.73;;;16.87;;
2001;SDS011;1003;48.002;7.788;2023-02-10T09:13:49;39.30;;;19.58;;
2001;SDS011;1003;48.002;7.788;2023-02-10T09:16:17;31.00;;;16.47;;
2001;SDS011;1003;48.002;7.788;2023-02-10T09:18:44;37.10;;;17.03;;
2001;SDS011;1003;48.002;7.788;2023-02-10T09:21:12;38.67;;;16.67;;
2001;SDS011;1003;48.002;7.788;2023-02-10T09:23:39;30.03;;;15.37;;
2001;SDS011;1003;48.002;7.788;2023-02-10T09:26:06;35.63;;;17.20;;
2001;SDS011;1003;48.002;7.788;2023-02-10T09:28:34;32.60;;;16.97;;
2001;SDS011;1003;48.002;7.788;2023-02-10T09:31:03;33.03;;;17.50;;
2001;SDS011;1003;48.002;7.788;2023-02-10T09:33:32;29.87;;;15.13;;
2001;SDS011;1003;48.002;7.788;2023-02-10T09:36:01;33.90;;;16.33;;
2001;SDS011;1003;48.002;7.788;2023-02-10T09:38:30;29.37;;;15.00;;
2001;SDS011;1003;48.002;7.788;2023-02-10T09:41:00;31.23;;;16.47;;
2001;SDS011;1003;48.002;7.788;2023-02-10T09:43:50;33.80;;;16.47;;
2001;SDS011;1003;48.002;7.788;2023-02-10T09:46:39;33.07;;;15.43;;
2001;SDS011;1003;48.002;7.788;2023-02-10T09:49:28;32.30;;;17.03;;
2001;SDS011;1003;48.002;7.788;2023-02-10T09:52:20;31.90;;;16.43;;
2001;SDS011;1003;48.002;7.788;2023-02-10T09:55:04;34.40;;;17.17;;
2001;SDS011;1003;48.002;7.788;2023-02-10T09:57:41;35.30;;;16.53;;
2001;SDS011;1003;48.002;7.788;2023-02-10T10:00:17;31.77;;;16.47;;
2001;SDS011;1003;48.002;7.788;2023-02-10T10:02:55;33.80;;;16.93;;
2001;SDS011;1003;48.002;7.788;2023-02-10T10:05:30;31.97;;;16.97;;
2001;SDS011;1003;48.002;7.788;2023-02-10T10:08:13;33.70;;;17.60;;
2001;SDS011;1003;48.002;7.788;2023-02-10T10:10:50;36.43;;;17.83;;
2001;SDS011;1003;48.002;7.788;2023-02-10T10:13:20;33.70;;;17.77;;
2001;SDS011;1003;48.002;7.788;2023-02-10T10:15:58;38.87;;;18.53;;
2001;SDS011;1003;48.002;7.788;2023-02-10T10:18:55;36.83;;;17.43;;
2001;SDS011;1003;48.002;7.788;2023-02-10T10:21:35;37.63;;;18.63;;
2001;SDS011;1003;48.002;7.788;2023-02-10T10:24:21;38.03;;;19.07;;
2001;SDS011;1003;48.002;7.788;2023-02-10T10:27:14;37.33;;;18.47;;
2001;SDS011;1003;48.002;7.788;2023-02-10T10:30:00;41.53;;;19.77;;
2001;SDS011;1003;48.002;7.788;2023-02-10T10:32:38;39.60;;;19.07;;
2001;SDS011;1003;48.002;7.788;2023-02-10T10:35:11;39.97;;;19.47;;
2001;SDS011;1003;48.002;7.788;2023-02-10T10:37:43;38.03;;;19.53;;
2001;SDS011;1003;48.002;7.788;2023-02-10T10:40:14;38.63;;;19.47;;
2001;SDS011;1003;48.002;7.788;2023-02-10T10:42:50;38.47;;;19.90;;
2001;SDS011;1003;48.002;7.788;2023-02-10T10:45:24;39.17;;;19.70;;
2001;SDS011;1003;48.002;7.788;2023-02-10T10:48:00;34.77;;;18.03;;
2001;SDS011;1003;48.002;7.788;2023-02-10T10:50:34;39.37;;;19.27;;
2001;SDS011;1003;48.002;7.788;2023-02-10T10:53:03;39.73;;;20.80;;
2001;SDS011;1003;48.002;7.788;2023-02-10T10:55:41;36.67;;;19.30;;
2001;SDS011;1003;48.002;7.788;2023-02-10T10:58:19;46.47;;;19.77;;
2001;SDS011;1003;48.002;7.788;2023-02-10T11:00:54;39.00;;;19.53;;
2001;SDS011;1003;48.002;7.788;2023-02-10T11:03:23;41.53;;;20.33;;
2001;SDS011;1003;48.002;7.788;2023-02-10T11:05:58;40.83;;;19.77;;
2001;SDS011;1003;48.002;7.788;2023-02-10T11:08:33;39.33;;;19.80;;
2001;SDS011;1003;48.002;7.788;2023-02-10T11:11:07;45.87;;;21.47;;
2001;SDS011;1003;48.002;7.788;2023-02-10T11:13:40;39.73;;;20.47;;
2001;SDS011;1003;48.002;7.788;2023-02-10T11:16:18;42.97;;;20.80;;
2001;SDS011;1003;48.002;7.788;2023-02-10T11:18:51;33.50;;;16.87;;
2001;SDS011;1003;48.002;7.788;2023-02-10T11:21:21;36.60;;;19.47;;
2001;SDS011;1003;48.002;7.788;2023-02-10T11:24:01;34.17;;;18.17;;
2001;SDS011;1003;48.002;7.788;2023-02-10T11:26:29;39.00;;;19.73;;
2001;SDS011;1003;48.002;7.788;2023-02-10T11:29:07;36.67;;;19.87;;
2001;SDS011;1003;48.002;7.788;2023-02-10T11:31:36;35.20;;;17.87;;
2001;SDS011;1003;48.002;7.788;2023-02-10T11:34:12;36.17;;;18.97;;
2001;SDS011;1003;48.002;7.788;2023-02-10T11:36:48;32.27;;;17.90;;
2001;SDS011;1003;48.002;7.788;2023-02-10T11:39:17;37.90;;;19.93;;
2001;SDS011;1003;48.002;7.788;2023-02-10T11:41:50;36.17;;;18.80;;
2001;SDS011;1003;48.002;7.788;2023-02-10T11:44:24;42.10;;;19.97;;
2001;SDS011;1003;48.002;7.788;2023-02-10T11:46:56;33.23;;;17.97;;
2001;SDS011;1003;48.002;7.788;2023-02-10T11:49:27;36.33;;;18.50;;
2001;SDS011;1003;48.002;7.788;2023-02-10T11:51:58;38.50;;;18.53;;
2001;SDS011;1003;48.002;7.788;2023-02-10T11:54:28;36.97;;;18.73;;
2001;SDS011;1003;48.002;7.788;2023-02-10T11:57:02;35.70;;;18.67;;
2001;SDS011;1003;48.002;7.788;2023-02-10T12:00:09;39.37;;;19.47;;
2001;SDS011;1003;48.002;7.788;2023-02-10T12:06:10;38.00;;;18.50;;
2001;SDS011;1003;48.002;7.788;2023-02-10T12:08:51;34.97;;;19.20;;
2001;SDS011;1003;48.002;7.788;2023-02-10T12:11:26;39.07;;;19.20;;
2001;SDS011;1003;48.002;7.788;2023-02-10T12:14:06;37.17;;;19.40;;
2001;SDS011;1003;48.002;7.788;2023-02-10T12:16:59;35.07;;;17.47;;
2001;SDS011;1003;48.002;7.788;2023-02-10T12:19:52;36.53;;;18.37;;
2001;SDS011;1003;48.002;7.788;2023-02-10T12:22:44;34.70;;;17.43;;
2001;SDS011;1003;48.002;7.788;2023-02-10T12:25:36;38.43;;;19.00;;
2001;SDS011;1003;48.002;7.788;2023-02-10T12:28:14;35.33;;;19.40;;
2001;SDS011;1003;48.002;7.788;2023-02-10T12:31:00;35.80;;;19.03;;
2001;SDS011;1003;48.002;7.788;2023-02-10T12:33:40;36.30;;;18.27;;
2001;SDS011;1003;48.002;7.788;2023-02-10T12:36:25;32.40;;;18.03;;
2001;SDS011;1003;48.002;7.788;2023-02-10T12:39:05;36.30;;;18.40;;
2001;SDS011;1003;48.002;7.788;2023-02-10T12:41:46;35.07;;;18.43;;
2001;SDS011;1003;48.002;7.788;2023-02-10T12:44:28;35.03;;;18.83;;
2001;SDS011;1003;48.002;7.788;2023-02-10T12:47:13;28.10;;;15.70;;
2001;SDS011;1003;48.002;7.788;2023-02-10T12:50:02;31.10;;;16.60;;
2001;SDS011;1003;48.002;7.788;2023-02-10T12:52:55;37.70;;;18.20;;
2001;SDS011;1003;48.002;7.788;2023-02-10T12:55:29;33.77;;;19.13;;
2001;SDS011;1003;48.002;7.788;2023-02-10T12:58:12;30.03;;;17.20;;
2001;SDS011;1003;48.002;7.788;2023-02-10T13:00:46;30.17;;;16.43;;
2001;SDS011;1003;48.002;7.788;2023-02-10T13:03:20;31.70;;;17.23;;
2001;SDS011;1003;48.002;7.788;2023-02-10T13:05:57;30.03;;;15.57;;
2001;SDS011;1003;48.002;7.788;2023-02-10T13:08:38;28.50;;;15.53;;
2001;SDS011;1003;48.002;7.788;2023-02-10T13:11:14;27.03;;;14.87;;
2001;SDS011;1003;48.002;7.788;2023-02-10T13:13:51;32.13;;;17.67;;
2001;SDS011;1003;48.002;7.788;2023-02-10T13:16:20;34.13;;;17.90;;
2001;SDS011;1003;48.002;7.788;2023-02-10T13:18:55;30.10;;;17.57;;
2001;SDS011;1003;48.002;7.788;2023-02-10T13:21:34;36.43;;;18.07;;
2001;SDS011;1003;48.002;7.788;2023-02-10T13:24:11;30.20;;;16.77;;
2001;SDS011;1003;48.002;7.788;2023-02-10T13:26:57;31.03;;;16.07;;
2001;SDS011;1003;48.002;7.788;2023-02-10T13:29:40;35.03;;;16.97;;
2001;SDS011;1003;48.002;7.788;2023-02-10T13:32:20;35.37;;;18.33;;
2001;SDS011;1003;48.002;7.788;2023-02-10T13:35:12;30.03;;;16.97;;
2001;SDS011;1003;48.002;7.788;2023-02-10T13:37:46;30.63;;;16.27;;
2001;SDS011;1003;48.002;7.788;2023-02-10T13:40:17;32.37;;;17.50;;
2001;SDS011;1003;48.002;7.788;2023-02-10T13:42:50;26.77;;;14.23;;
2001;SDS011;1003;48.002;7.788;2023-02-10T13:45:21;29.63;;;16.23;;
2001;SDS011;1003;48.002;7.788;2023-02-10T13:47:53;31.57;;;16.37;;
2001;SDS011;1003;48.002;7.788;2023-02-10T13:50:25;30.63;;;15.27;;
2001;SDS011;1003;48.002;7.788;2023-02-10T13:52:58;28.33;;;15.47;;
2001;SDS011;1003;48.002;7.788;2023-02-10T13:55:41;30.70;;;14.93;;
2001;SDS011;1003;48.002;7.788;2023-02-10T13:58:26;28.57;;;15.43;;
2001;SDS011;1003;48.002;7.788;2023-02-10T14:00:59;28.10;;;15.33;;
2001;SDS011;1003;48.002;7.788;2023-02-10T14:03:27;30.40;;;15.20;;
2001;SDS011;1003;48.002;7.788;2023-02-10T14:05:58;26.90;;;14.27;;
2001;SDS011;1003;48.002;7.788;2023-02-10T14:08:31;24.50;;;13.97;;
2001;SDS011;1003;48.002;7.788;2023-02-10T14:11:03;22.80;;;12.47;;
2001;SDS011;1003;48.002;7.788;2023-02-10T14:13:56;18.93;;;11.57;;
2001;SDS011;1003;48.002;7.788;2023-02-10T14:16:28;24.97;;;12.00;;
2001;SDS011;1003;48.002;7.788;2023-02-10T14:18:58;22.13;;;12.07;;
2001;SDS011;1003;48.002;7.788;2023-02-10T14:21:37;24.90;;;14.77;;
2001;SDS011;1003;48.002;7.788;2023-02-10T14:24:10;28.07;;;15.17;;
2001;SDS011;1003;48.002;7.788;2023-02-10T14:26:44;32.87;;;16.93;;
2001;SDS011;1003;48.002;7.788;2023-02-10T14:29:13;32.53;;;16.83;;
2001;SDS011;1003;48.002;7.788;2023-02-10T14:31:45;34.17;;;17.33;;
2001;SDS011;1003;48.002;7.788;2023-02-10T14:34:17;27.47;;;15.73;;
2001;SDS011;1003;48.002;7.788;2023-02-10T14:36:49;32.13;;;16.87;;
2001;SDS011;1003;48.002;7.788;2023-02-10T14:39:21;29.83;;;16.00;;
2001;SDS011;1003;48.002;7.788;2023-02-10T14:41:49;31.23;;;16.17;;
2001;SDS011;1003;48.002;7.788;2023-02-10T14:44:21;35.33;;;18.43;;
2001;SDS011;1003;48.002;7.788;2023-02-10T14:46:55;33.47;;;17.47;;
2001;SDS011;1003;48.002;7.788;2023-02-10T14:49:23;34.77;;;19.23;;
2001;SDS011;1003;48.002;7.788;2023-02-10T14:51:50;36.13;;;19.07;;
2001;SDS011;1003;48.002;7.788;2023-02-10T14:54:19;34.83;;;18.70;;
2001;SDS011;1003;48.002;7.788;2023-02-10T14:56:52;37.30;;;18.83;;
2001;SDS011;1003;48.002;7.788;2023-02-10T14:59:21;32.83;;;18.43;;
2001;SDS011;1003;48.002;7.788;2023-02-10T15:01:52;37.70;;;20.17;;
2001;SDS011;1003;48.002;7.788;2023-02-10T15:04:20;33.87;;;18.27;;
2001;SDS011;1003;48.002;7.788;2023-02-10T15:06:51;36.83;;;18.57;;
2001;SDS011;1003;48.002;7.788;2023-02-10T15:09:23;38.27;;;19.43;;
2001;SDS011;1003;48.002;7.788;2023-02-10T15:11:57;32.97;;;18.63;;
2001;SDS011;1003;48.002;7.788;2023-02-10T15:14:40;41.43;;;19.13;;
2001;SDS011;1003;48.002;7.788;2023-02-10T15:17:13;33.17;;;18.13;;
2001;SDS011;1003;48.002;7.788;2023-02-10T15:19:51;34.27;;;18.03;;
2001;SDS011;1003;48.002;7.788;2023-02-10T15:22:31;35.40;;;18.53;;
2001;SDS011;1003;48.002;7.788;2023-02-10T15:25:27;36.37;;;18.93;;
2001;SDS011;1003;48.002;7.788;2023-02-10T15:28:14;29.10;;;16.67;;
2001;SDS011;1003;48.002;7.788;2023-02-10T15:30:53;36.23;;;21.47;;